sensor_id;sensor_type;location;lat;lon;timestamp;pressure;altitude;pressure_sealevel;temperature;humidity
77662;BME280;69666;52.136;5.424;2023-12-20T00:02:08;101638.84;;;5.21;100.00
77662;BME280;69666;52.136;5.424;2023-12-20T00:04:37;101630.19;;;5.19;100.00
77662;BME280;69666;52.136;5.424;2023-12-20T00:07:07;101633.03;;;5.17;100.00
77662;BME280;69666;52.136;5.424;2023-12-20T00:09:37;101626.53;;;5.20;100.00
77662;BME280;69666;52.136;5.424;2023-12-20T00:12:06;101621.50;;;5.17;100.00
77662;BME280;69666;52.136;5.424;2023-12-20T00:14:36;101628.16;;;5.13;100.00
77662;BME280;69666;52.136;5.424;2023-12-20T00:17:05;101620.78;;;5.07;100.00
77662;BME280;69666;52.136;5.424;2023-12-20T00:19:35;101613.09;;;5.04;100.00
77662;BME280;69666;52.136;5.424;2023-12-20T00:22:05;101617.75;;;5.02;100.00
77662;BME280;69666;52.136;5.424;2023-12-20T00:24:35;101616.41;;;4.97;100.00
77662;BME280;69666;52.136;5.424;2023-12-20T00:27:05;101618.72;;;4.92;100.00
77662;BME280;69666;52.136;5.424;2023-12-20T00:29:34;101608.34;;;4.89;100.00
77662;BME280;69666;52.136;5.424;2023-12-20T00:32:04;101612.31;;;4.85;100.00
77662;BME280;69666;52.136;5.424;2023-12-20T00:34:33;101621.34;;;4.84;100.00
77662;BME280;69666;52.136;5.424;2023-12-20T00:37:03;101622.66;;;4.80;100.00
77662;BME280;69666;52.136;5.424;2023-12-20T00:39:32;101624.78;;;4.77;100.00
77662;BME280;69666;52.136;5.424;2023-12-20T00:42:02;101624.28;;;4.73;100.00
77662;BME280;69666;52.136;5.424;2023-12-20T00:44:32;101622.59;;;4.72;100.00
77662;BME280;69666;52.136;5.424;2023-12-20T00:47:01;101618.41;;;4.70;100.00
77662;BME280;69666;52.136;5.424;2023-12-20T00:49:30;101618.56;;;4.68;100.00
77662;BME280;69666;52.136;5.424;2023-12-20T00:52:00;101619.59;;;4.67;100.00
77662;BME280;69666;52.136;5.424;2023-12-20T00:54:29;101617.06;;;4.65;100.00
77662;BME280;69666;52.136;5.424;2023-12-20T00:56:59;101609.53;;;4.61;100.00
77662;BME280;69666;52.136;5.424;2023-12-20T00:59:28;101630.38;;;4.57;100.00
77662;BME280;69666;52.136;5.424;2023-12-20T01:01:58;101622.81;;;4.53;100.00
77662;BME280;69666;52.136;5.424;2023-12-20T01:04:27;101626.81;;;4.49;100.00
77662;BME280;69666;52.136;5.424;2023-12-20T01:06:57;101613.63;;;4.47;100.00
77662;BME280;69666;52.136;5.424;2023-12-20T01:09:27;101610.56;;;4.42;100.00
77662;BME280;69666;52.136;5.424;2023-12-20T01:11:56;101603.56;;;4.41;100.00
77662;BME280;69666;52.136;5.424;2023-12-20T01:14:26;101601.72;;;4.42;100.00
77662;BME280;69666;52.136;5.424;2023-12-20T01:16:55;101603.72;;;4.40;100.00
77662;BME280;69666;52.136;5.424;2023-12-20T01:19:25;101596.88;;;4.37;100.00
77662;BME280;69666;52.136;5.424;2023-12-20T01:21:56;101596.03;;;4.37;100.00
77662;BME280;69666;52.136;5.424;2023-12-20T01:24:25;101607.00;;;4.33;100.00
77662;BME280;69666;52.136;5.424;2023-12-20T01:26:55;101616.84;;;4.33;100.00
77662;BME280;69666;52.136;5.424;2023-12-20T01:29:24;101627.50;;;4.33;100.00
77662;BME280;69666;52.136;5.424;2023-12-20T01:31:53;101624.00;;;4.32;100.00
77662;BME280;69666;52.136;5.424;2023-12-20T01:34:23;101628.19;;;4.35;100.00
77662;BME280;69666;52.136;5.424;2023-12-20T01:36:53;101623.38;;;4.39;100.00
77662;BME280;69666;52.136;5.424;2023-12-20T01:39:22;101627.72;;;4.40;100.00
77662;BME280;69666;52.136;5.424;2023-12-20T01:41:57;101625.75;;;4.42;100.00
77662;BME280;69666;52.136;5.424;2023-12-20T01:44:26;101617.75;;;4.42;100.00
77662;BME280;69666;52.136;5.424;2023-12-20T01:46:56;101608.75;;;4.43;100.00
77662;BME280;69666;52.136;5.424;2023-12-20T01:49:26;101614.91;;;4.43;100.00
77662;BME280;69666;52.136;5.424;2023-12-20T01:51:56;101603.41;;;4.43;100.00
77662;BME280;69666;52.136;5.424;2023-12-20T01:54:26;101607.75;;;4.44;100.00
77662;BME280;69666;52.136;5.424;2023-12-20T01:56:56;101606.06;;;4.43;100.00
77662;BME280;69666;52.136;5.424;2023-12-20T01:59:26;101610.25;;;4.45;100.00
77662;BME280;69666;52.136;5.424;2023-12-20T02:01:57;101602.94;;;4.47;100.00
77662;BME280;69666;52.136;5.424;2023-12-20T02:04:27;101605.44;;;4.49;100.00
77662;BME280;69666;52.136;5.424;2023-12-20T02:06:59;101609.94;;;4.48;100.00
77662;BME280;69666;52.136;5.424;2023-12-20T02:09:29;101616.13;;;4.49;100.00
77662;BME280;69666;52.136;5.424;2023-12-20T02:11:59;101605.44;;;4.49;100.00
77662;BME280;69666;52.136;5.424;2023-12-20T02:14:28;101605.75;;;4.46;100.00
77662;BME280;69666;52.136;5.424;2023-12-20T02:16:58;101595.78;;;4.48;100.00
77662;BME280;69666;52.136;5.424;2023-12-20T02:19:27;101603.47;;;4.51;100.00
77662;BME280;69666;52.136;5.424;2023-12-20T02:22:10;101603.47;;;4.51;100.00
77662;BME280;69666;52.136;5.424;2023-12-20T02:24:40;101595.00;;;4.55;100.00
77662;BME280;69666;52.136;5.424;2023-12-20T02:27:09;101604.34;;;4.59;100.00
77662;BME280;69666;52.136;5.424;2023-12-20T02:29:39;101608.69;;;4.60;100.00
77662;BME280;69666;52.136;5.424;2023-12-20T02:32:08;101593.22;;;4.64;100.00
77662;BME280;69666;52.136;5.424;2023-12-20T02:34:38;101591.06;;;4.68;100.00
77662;BME280;69666;52.136;5.424;2023-12-20T02:37:07;101596.22;;;4.69;100.00
77662;BME280;69666;52.136;5.424;2023-12-20T02:39:37;101594.53;;;4.68;100.00
77662;BME280;69666;52.136;5.424;2023-12-20T02:42:07;101592.38;;;4.72;100.00
77662;BME280;69666;52.136;5.424;2023-12-20T02:44:36;101589.72;;;4.72;100.00
77662;BME280;69666;52.136;5.424;2023-12-20T02:47:06;101583.53;;;4.71;100.00
77662;BME280;69666;52.136;5.424;2023-12-20T02:49:35;101582.41;;;4.74;100.00
77662;BME280;69666;52.136;5.424;2023-12-20T02:52:05;101579.56;;;4.75;100.00
77662;BME280;69666;52.136;5.424;2023-12-20T02:54:34;101575.06;;;4.76;100.00
77662;BME280;69666;52.136;5.424;2023-12-20T02:57:04;101576.75;;;4.77;100.00
77662;BME280;69666;52.136;5.424;2023-12-20T02:59:33;101576.75;;;4.77;100.00
77662;BME280;69666;52.136;5.424;2023-12-20T03:02:03;101571.72;;;4.74;100.00
77662;BME280;69666;52.136;5.424;2023-12-20T03:04:32;101570.88;;;4.73;100.00
77662;BME280;69666;52.136;5.424;2023-12-20T03:07:02;101571.03;;;4.72;100.00
77662;BME280;69666;52.136;5.424;2023-12-20T03:09:32;101567.53;;;4.71;100.00
77662;BME280;69666;52.136;5.424;2023-12-20T03:12:21;101561.88;;;4.74;100.00
77662;BME280;69666;52.136;5.424;2023-12-20T03:14:51;101562.56;;;4.76;100.00
77662;BME280;69666;52.136;5.424;2023-12-20T03:17:20;101566.22;;;4.75;100.00
77662;BME280;69666;52.136;5.424;2023-12-20T03:19:49;101559.72;;;4.78;100.00
77662;BME280;69666;52.136;5.424;2023-12-20T03:22:19;101559.56;;;4.79;100.00
77662;BME280;69666;52.136;5.424;2023-12-20T03:24:48;101550.56;;;4.80;100.00
77662;BME280;69666;52.136;5.424;2023-12-20T03:27:18;101545.22;;;4.80;100.00
77662;BME280;69666;52.136;5.424;2023-12-20T03:29:47;101550.56;;;4.80;100.00
77662;BME280;69666;52.136;5.424;2023-12-20T03:32:17;101545.22;;;4.80;100.00
77662;BME280;69666;52.136;5.424;2023-12-20T03:34:46;101545.53;;;4.77;100.00
77662;BME280;69666;52.136;5.424;2023-12-20T03:37:16;101547.22;;;4.78;100.00
77662;BME280;69666;52.136;5.424;2023-12-20T03:39:46;101543.72;;;4.78;100.00
77662;BME280;69666;52.136;5.424;2023-12-20T03:42:16;101555.06;;;4.80;100.00
77662;BME280;69666;52.136;5.424;2023-12-20T03:44:45;101552.91;;;4.83;100.00
77662;BME280;69666;52.136;5.424;2023-12-20T03:47:14;101551.91;;;4.84;100.00
77662;BME280;69666;52.136;5.424;2023-12-20T03:49:44;101551.59;;;4.87;100.00
77662;BME280;69666;52.136;5.424;2023-12-20T03:52:13;101551.28;;;4.90;100.00
77662;BME280;69666;52.136;5.424;2023-12-20T03:54:43;101552.94;;;4.91;100.00
77662;BME280;69666;52.136;5.424;2023-12-20T03:57:12;101553.63;;;4.93;100.00
77662;BME280;69666;52.136;5.424;2023-12-20T03:59:42;101549.28;;;4.92;100.00
77662;BME280;69666;52.136;5.424;2023-12-20T04:02:11;101542.28;;;4.91;100.00
77662;BME280;69666;52.136;5.424;2023-12-20T04:04:41;101549.59;;;4.89;100.00
77662;BME280;69666;52.136;5.424;2023-12-20T04:07:10;101553.94;;;4.90;100.00
77662;BME280;69666;52.136;5.424;2023-12-20T04:09:40;101545.94;;;4.90;100.00
77662;BME280;69666;52.136;5.424;2023-12-20T04:12:10;101547.94;;;4.88;100.00
77662;BME280;69666;52.136;5.424;2023-12-20T04:14:40;101549.59;;;4.89;100.00
77662;BME280;69666;52.136;5.424;2023-12-20T04:17:09;101542.44;;;4.90;100.00
77662;BME280;69666;52.136;5.424;2023-12-20T04:19:38;101534.94;;;4.93;100.00
77662;BME280;69666;52.136;5.424;2023-12-20T04:22:09;101534.94;;;4.93;100.00
77662;BME280;69666;52.136;5.424;2023-12-20T04:24:38;101534.78;;;4.95;100.00
77662;BME280;69666;52.136;5.424;2023-12-20T04:27:10;101533.78;;;4.96;100.00
77662;BME280;69666;52.136;5.424;2023-12-20T04:29:40;101538.28;;;4.95;100.00
77662;BME280;69666;52.136;5.424;2023-12-20T04:32:09;101538.78;;;4.99;100.00
77662;BME280;69666;52.136;5.424;2023-12-20T04:34:39;101540.97;;;5.04;100.00
77662;BME280;69666;52.136;5.424;2023-12-20T04:37:08;101535.31;;;5.07;100.00
77662;BME280;69666;52.136;5.424;2023-12-20T04:39:37;101539.19;;;5.12;100.00
77662;BME280;69666;52.136;5.424;2023-12-20T04:42:08;101542.38;;;5.16;100.00
77662;BME280;69666;52.136;5.424;2023-12-20T04:44:38;101535.03;;;5.18;100.00
77662;BME280;69666;52.136;5.424;2023-12-20T04:47:07;101528.84;;;5.25;100.00
77662;BME280;69666;52.136;5.424;2023-12-20T04:49:37;101533.50;;;5.23;100.00
77662;BME280;69666;52.136;5.424;2023-12-20T04:52:06;101537.53;;;5.27;100.00
77662;BME280;69666;52.136;5.424;2023-12-20T04:54:36;101518.34;;;5.32;100.00
77662;BME280;69666;52.136;5.424;2023-12-20T04:57:08;101522.19;;;5.38;100.00
77662;BME280;69666;52.136;5.424;2023-12-20T04:59:37;101515.69;;;5.40;100.00
77662;BME280;69666;52.136;5.424;2023-12-20T05:02:06;101521.84;;;5.41;100.00
77662;BME280;69666;52.136;5.424;2023-12-20T05:04:36;101515.34;;;5.43;100.00
77662;BME280;69666;52.136;5.424;2023-12-20T05:07:05;101514.03;;;5.47;100.00
77662;BME280;69666;52.136;5.424;2023-12-20T05:09:35;101524.53;;;5.49;100.00
77662;BME280;69666;52.136;5.424;2023-12-20T05:12:06;101524.22;;;5.52;100.00
77662;BME280;69666;52.136;5.424;2023-12-20T05:14:35;101524.72;;;5.55;100.00
77662;BME280;69666;52.136;5.424;2023-12-20T05:17:05;101524.56;;;5.57;100.00
77662;BME280;69666;52.136;5.424;2023-12-20T05:19:34;101518.72;;;5.61;100.00
77662;BME280;69666;52.136;5.424;2023-12-20T05:22:04;101531.09;;;5.62;100.00
77662;BME280;69666;52.136;5.424;2023-12-20T05:24:33;101525.06;;;5.60;100.00
77662;BME280;69666;52.136;5.424;2023-12-20T05:27:03;101522.91;;;5.64;100.00
77662;BME280;69666;52.136;5.424;2023-12-20T05:29:32;101532.41;;;5.67;100.00
77662;BME280;69666;52.136;5.424;2023-12-20T05:32:02;101517.06;;;5.69;100.00
77662;BME280;69666;52.136;5.424;2023-12-20T05:34:32;101532.09;;;5.70;100.00
77662;BME280;69666;52.136;5.424;2023-12-20T05:37:02;101527.59;;;5.70;100.00
77662;BME280;69666;52.136;5.424;2023-12-20T05:39:32;101529.41;;;5.70;100.00
77662;BME280;69666;52.136;5.424;2023-12-20T05:42:01;101528.06;;;5.74;100.00
77662;BME280;69666;52.136;5.424;2023-12-20T05:44:30;101518.88;;;5.76;100.00
77662;BME280;69666;52.136;5.424;2023-12-20T05:47:00;101522.88;;;5.72;100.00
77662;BME280;69666;52.136;5.424;2023-12-20T05:49:29;101521.69;;;5.75;100.00
77662;BME280;69666;52.136;5.424;2023-12-20T05:51:59;101523.06;;;5.71;100.00
77662;BME280;69666;52.136;5.424;2023-12-20T05:54:29;101521.53;;;5.76;100.00
77662;BME280;69666;52.136;5.424;2023-12-20T05:56:58;101516.69;;;5.80;100.00
77662;BME280;69666;52.136;5.424;2023-12-20T05:59:28;101523.72;;;5.81;100.00
77662;BME280;69666;52.136;5.424;2023-12-20T06:01:58;101524.03;;;5.78;100.00
77662;BME280;69666;52.136;5.424;2023-12-20T06:04:27;101516.69;;;5.80;100.00
77662;BME280;69666;52.136;5.424;2023-12-20T06:06:57;101527.06;;;5.83;100.00
77662;BME280;69666;52.136;5.424;2023-12-20T06:09:27;101520.03;;;5.82;100.00
77662;BME280;69666;52.136;5.424;2023-12-20T06:11:59;101520.03;;;5.82;100.00
77662;BME280;69666;52.136;5.424;2023-12-20T06:14:28;101517.19;;;5.83;100.00
77662;BME280;69666;52.136;5.424;2023-12-20T06:16:58;101518.38;;;5.81;100.00
77662;BME280;69666;52.136;5.424;2023-12-20T06:19:29;101507.66;;;5.81;100.00
77662;BME280;69666;52.136;5.424;2023-12-20T06:21:58;101513.84;;;5.81;100.00
77662;BME280;69666;52.136;5.424;2023-12-20T06:24:28;101506.00;;;5.80;100.00
77662;BME280;69666;52.136;5.424;2023-12-20T06:26:58;101509.00;;;5.85;100.00
77662;BME280;69666;52.136;5.424;2023-12-20T06:29:28;101508.16;;;5.84;100.00
77662;BME280;69666;52.136;5.424;2023-12-20T06:31:59;101512.50;;;5.85;100.00
77662;BME280;69666;52.136;5.424;2023-12-20T06:34:28;101506.66;;;5.82;100.00
77662;BME280;69666;52.136;5.424;2023-12-20T06:36:58;101518.03;;;5.84;100.00
77662;BME280;69666;52.136;5.424;2023-12-20T06:39:27;101510.69;;;5.86;100.00
77662;BME280;69666;52.136;5.424;2023-12-20T06:41:58;101499.69;;;5.89;100.00
77662;BME280;69666;52.136;5.424;2023-12-20T06:44:28;101514.38;;;5.93;100.00
77662;BME280;69666;52.136;5.424;2023-12-20T06:46:58;101510.88;;;5.92;100.00
77662;BME280;69666;52.136;5.424;2023-12-20T06:49:27;101503.03;;;5.91;100.00
77662;BME280;69666;52.136;5.424;2023-12-20T06:51:57;101506.38;;;5.93;100.00
77662;BME280;69666;52.136;5.424;2023-12-20T06:54:26;101497.34;;;5.94;100.00
77662;BME280;69666;52.136;5.424;2023-12-20T06:56:56;101495.16;;;5.97;100.00
77662;BME280;69666;52.136;5.424;2023-12-20T06:59:25;101492.66;;;5.96;100.00
77662;BME280;69666;52.136;5.424;2023-12-20T07:01:55;101490.97;;;5.95;100.00
77662;BME280;69666;52.136;5.424;2023-12-20T07:04:24;101485.47;;;5.96;100.00
77662;BME280;69666;52.136;5.424;2023-12-20T07:06:54;101494.50;;;5.95;100.00
77662;BME280;69666;52.136;5.424;2023-12-20T07:09:26;101498.34;;;5.93;100.00
77662;BME280;69666;52.136;5.424;2023-12-20T07:11:55;101498.84;;;5.96;100.00
77662;BME280;69666;52.136;5.424;2023-12-20T07:14:25;101493.31;;;5.98;100.00
77662;BME280;69666;52.136;5.424;2023-12-20T07:16:55;101495.66;;;6.01;100.00
77662;BME280;69666;52.136;5.424;2023-12-20T07:19:25;101492.31;;;5.99;100.00
77662;BME280;69666;52.136;5.424;2023-12-20T07:21:55;101487.47;;;6.03;100.00
77662;BME280;69666;52.136;5.424;2023-12-20T07:24:24;101485.47;;;6.05;100.00
77662;BME280;69666;52.136;5.424;2023-12-20T07:26:54;101483.63;;;6.05;100.00
77662;BME280;69666;52.136;5.424;2023-12-20T07:29:23;101487.47;;;6.11;100.00
77662;BME280;69666;52.136;5.424;2023-12-20T07:31:53;101484.59;;;6.12;100.00
77662;BME280;69666;52.136;5.424;2023-12-20T07:34:23;101492.13;;;6.17;100.00
77662;BME280;69666;52.136;5.424;2023-12-20T07:36:52;101476.75;;;6.11;100.00
77662;BME280;69666;52.136;5.424;2023-12-20T07:39:22;101476.25;;;6.15;100.00
77662;BME280;69666;52.136;5.424;2023-12-20T07:41:51;101477.91;;;6.16;100.00
77662;BME280;69666;52.136;5.424;2023-12-20T07:44:21;101483.25;;;6.16;100.00
77662;BME280;69666;52.136;5.424;2023-12-20T07:46:50;101482.59;;;6.14;100.00
77662;BME280;69666;52.136;5.424;2023-12-20T07:49:20;101491.28;;;6.16;100.00
77662;BME280;69666;52.136;5.424;2023-12-20T07:51:50;101495.47;;;6.19;100.00
77662;BME280;69666;52.136;5.424;2023-12-20T07:54:19;101503.31;;;6.20;100.00
77662;BME280;69666;52.136;5.424;2023-12-20T07:56:49;101503.78;;;6.24;100.00
77662;BME280;69666;52.136;5.424;2023-12-20T07:59:18;101505.16;;;6.20;100.00
77662;BME280;69666;52.136;5.424;2023-12-20T08:01:59;101512.66;;;6.24;100.00
77662;BME280;69666;52.136;5.424;2023-12-20T08:04:29;101514.50;;;6.24;100.00
77662;BME280;69666;52.136;5.424;2023-12-20T08:06:58;101515.00;;;6.27;100.00
77662;BME280;69666;52.136;5.424;2023-12-20T08:09:28;101522.69;;;6.30;100.00
77662;BME280;69666;52.136;5.424;2023-12-20T08:11:58;101520.00;;;6.30;100.00
77662;BME280;69666;52.136;5.424;2023-12-20T08:14:28;101522.34;;;6.34;100.00
77662;BME280;69666;52.136;5.424;2023-12-20T08:16:57;101527.69;;;6.34;100.00
77662;BME280;69666;52.136;5.424;2023-12-20T08:19:26;101522.16;;;6.35;100.00
77662;BME280;69666;52.136;5.424;2023-12-20T08:21:56;101521.00;;;6.38;100.00
77662;BME280;69666;52.136;5.424;2023-12-20T08:24:26;101510.47;;;6.36;100.00
77662;BME280;69666;52.136;5.424;2023-12-20T08:26:55;101508.28;;;6.40;100.00
77662;BME280;69666;52.136;5.424;2023-12-20T08:29:24;101497.91;;;6.37;100.00
77662;BME280;69666;52.136;5.424;2023-12-20T08:31:54;101506.25;;;6.42;100.00
77662;BME280;69666;52.136;5.424;2023-12-20T08:34:24;101502.56;;;6.43;100.00
77662;BME280;69666;52.136;5.424;2023-12-20T08:36:54;101496.88;;;6.46;100.00
77662;BME280;69666;52.136;5.424;2023-12-20T08:39:23;101500.22;;;6.48;100.00
77662;BME280;69666;52.136;5.424;2023-12-20T08:41:53;101496.53;;;6.49;100.00
77662;BME280;69666;52.136;5.424;2023-12-20T08:44:22;101508.09;;;6.49;100.00
77662;BME280;69666;52.136;5.424;2023-12-20T08:46:51;101500.06;;;6.49;100.00
77662;BME280;69666;52.136;5.424;2023-12-20T08:49:21;101492.84;;;6.50;100.00
77662;BME280;69666;52.136;5.424;2023-12-20T08:51:50;101507.41;;;6.55;100.00
77662;BME280;69666;52.136;5.424;2023-12-20T08:54:20;101494.19;;;6.54;100.00
77662;BME280;69666;52.136;5.424;2023-12-20T08:56:49;101500.88;;;6.58;100.00
77662;BME280;69666;52.136;5.424;2023-12-20T08:59:19;101497.19;;;6.59;100.00
77662;BME280;69666;52.136;5.424;2023-12-20T09:01:48;101506.56;;;6.55;100.00
77662;BME280;69666;52.136;5.424;2023-12-20T09:04:22;101512.59;;;6.57;100.00
77662;BME280;69666;52.136;5.424;2023-12-20T09:06:52;101507.53;;;6.62;100.00
77662;BME280;69666;52.136;5.424;2023-12-20T09:09:21;101504.19;;;6.60;100.00
77662;BME280;69666;52.136;5.424;2023-12-20T09:11:51;101502.53;;;6.59;100.00
77662;BME280;69666;52.136;5.424;2023-12-20T09:14:20;101498.84;;;6.60;100.00
77662;BME280;69666;52.136;5.424;2023-12-20T09:16:50;101495.16;;;6.61;100.00
77662;BME280;69666;52.136;5.424;2023-12-20T09:19:19;101500.84;;;6.66;100.00
77662;BME280;69666;52.136;5.424;2023-12-20T09:21:48;101494.47;;;6.67;100.00
77662;BME280;69666;52.136;5.424;2023-12-20T09:24:18;101498.16;;;6.66;100.00
77662;BME280;69666;52.136;5.424;2023-12-20T09:26:47;101503.50;;;6.66;100.00
77662;BME280;69666;52.136;5.424;2023-12-20T09:29:16;101489.13;;;6.67;100.00
77662;BME280;69666;52.136;5.424;2023-12-20T09:31:46;101494.13;;;6.70;100.00
77662;BME280;69666;52.136;5.424;2023-12-20T09:34:16;101497.97;;;6.76;100.00
77662;BME280;69666;52.136;5.424;2023-12-20T09:36:45;101486.88;;;6.79;100.00
77662;BME280;69666;52.136;5.424;2023-12-20T09:39:16;101492.38;;;6.85;100.00
77662;BME280;69666;52.136;5.424;2023-12-20T09:42:01;101493.84;;;6.88;100.00
77662;BME280;69666;52.136;5.424;2023-12-20T09:44:31;101493.81;;;6.96;100.00
77662;BME280;69666;52.136;5.424;2023-12-20T09:47:03;101492.63;;;6.98;100.00
77662;BME280;69666;52.136;5.424;2023-12-20T09:49:33;101489.13;;;6.98;100.00
77662;BME280;69666;52.136;5.424;2023-12-20T09:52:05;101512.41;;;6.97;100.00
77662;BME280;69666;52.136;5.424;2023-12-20T09:54:36;101503.34;;;6.98;100.00
77662;BME280;69666;52.136;5.424;2023-12-20T09:57:06;101492.47;;;7.00;100.00
77662;BME280;69666;52.136;5.424;2023-12-20T09:59:35;101497.47;;;7.03;100.00
77662;BME280;69666;52.136;5.424;2023-12-20T10:02:12;101494.13;;;7.01;100.00
77662;BME280;69666;52.136;5.424;2023-12-20T10:04:47;101507.66;;;7.08;100.00
77662;BME280;69666;52.136;5.424;2023-12-20T10:07:16;101511.47;;;7.13;100.00
77662;BME280;69666;52.136;5.424;2023-12-20T10:09:48;101510.13;;;7.17;100.00
77662;BME280;69666;52.136;5.424;2023-12-20T10:12:17;101506.78;;;7.15;100.00
77662;BME280;69666;52.136;5.424;2023-12-20T10:14:47;101521.81;;;7.24;100.00
77662;BME280;69666;52.136;5.424;2023-12-20T10:17:16;101518.56;;;7.29;100.00
77662;BME280;69666;52.136;5.424;2023-12-20T10:19:46;101525.59;;;7.30;100.00
77662;BME280;69666;52.136;5.424;2023-12-20T10:22:16;101514.22;;;7.28;100.00
77662;BME280;69666;52.136;5.424;2023-12-20T10:24:45;101516.28;;;7.26;100.00
77662;BME280;69666;52.136;5.424;2023-12-20T10:27:18;101516.72;;;7.29;100.00
77662;BME280;69666;52.136;5.424;2023-12-20T10:29:47;101512.19;;;7.30;100.00
77662;BME280;69666;52.136;5.424;2023-12-20T10:32:25;101495.75;;;7.33;100.00
77662;BME280;69666;52.136;5.424;2023-12-20T10:34:56;101502.59;;;7.36;100.00
77662;BME280;69666;52.136;5.424;2023-12-20T10:37:27;101507.09;;;7.43;100.00
77662;BME280;69666;52.136;5.424;2023-12-20T10:40:01;101492.66;;;7.44;100.00
77662;BME280;69666;52.136;5.424;2023-12-20T10:42:32;101495.16;;;7.46;100.00
77662;BME280;69666;52.136;5.424;2023-12-20T10:45:04;101492.31;;;7.47;100.00
77662;BME280;69666;52.136;5.424;2023-12-20T10:47:36;101489.81;;;7.46;100.00
77662;BME280;69666;52.136;5.424;2023-12-20T10:50:08;101487.91;;;7.54;100.00
77662;BME280;69666;52.136;5.424;2023-12-20T10:52:39;101484.03;;;7.57;100.00
77662;BME280;69666;52.136;5.424;2023-12-20T10:55:09;101472.66;;;7.55;100.00
77662;BME280;69666;52.136;5.424;2023-12-20T10:57:39;101476.81;;;7.57;100.00
77662;BME280;69666;52.136;5.424;2023-12-20T11:00:14;101485.16;;;7.62;100.00
77662;BME280;69666;52.136;5.424;2023-12-20T11:02:45;101479.09;;;7.69;100.00
77662;BME280;69666;52.136;5.424;2023-12-20T11:05:36;101476.03;;;7.72;100.00
77662;BME280;69666;52.136;5.424;2023-12-20T11:08:12;101483.19;;;7.79;100.00
77662;BME280;69666;52.136;5.424;2023-12-20T11:13:40;101465.44;;;7.93;100.00
77662;BME280;69666;52.136;5.424;2023-12-20T11:16:10;101464.63;;;8.07;100.00
77662;BME280;69666;52.136;5.424;2023-12-20T11:18:41;101468.16;;;8.22;100.00
77662;BME280;69666;52.136;5.424;2023-12-20T11:21:11;101465.84;;;8.34;100.00
77662;BME280;69666;52.136;5.424;2023-12-20T11:23:43;101464.56;;;8.45;100.00
77662;BME280;69666;52.136;5.424;2023-12-20T11:26:16;101449.09;;;8.47;100.00
77662;BME280;69666;52.136;5.424;2023-12-20T11:28:45;101439.38;;;8.46;100.00
77662;BME280;69666;52.136;5.424;2023-12-20T11:31:15;101445.84;;;8.37;100.00
77662;BME280;69666;52.136;5.424;2023-12-20T11:33:46;101442.34;;;8.36;100.00
77662;BME280;69666;52.136;5.424;2023-12-20T11:36:19;101437.16;;;8.35;100.00
77662;BME280;69666;52.136;5.424;2023-12-20T11:38:57;101447.16;;;8.41;100.00
77662;BME280;69666;52.136;5.424;2023-12-20T11:41:28;101444.75;;;8.46;100.00
77662;BME280;69666;52.136;5.424;2023-12-20T11:43:58;101443.44;;;8.56;100.00
77662;BME280;69666;52.136;5.424;2023-12-20T11:46:29;101432.59;;;8.65;100.00
77662;BME280;69666;52.136;5.424;2023-12-20T11:48:59;101428.81;;;8.59;100.00
77662;BME280;69666;52.136;5.424;2023-12-20T11:51:29;101419.09;;;8.58;100.00
77662;BME280;69666;52.136;5.424;2023-12-20T11:53:59;101416.22;;;8.59;100.00
77662;BME280;69666;52.136;5.424;2023-12-20T11:56:28;101417.69;;;8.62;100.00
77662;BME280;69666;52.136;5.424;2023-12-20T11:58:57;101415.00;;;8.62;100.00
77662;BME280;69666;52.136;5.424;2023-12-20T12:01:50;101410.66;;;8.61;100.00
77662;BME280;69666;52.136;5.424;2023-12-20T12:04:20;101415.19;;;8.60;100.00
77662;BME280;69666;52.136;5.424;2023-12-20T12:06:49;101410.28;;;8.64;100.00
77662;BME280;69666;52.136;5.424;2023-12-20T12:09:19;101421.66;;;8.66;100.00
77662;BME280;69666;52.136;5.424;2023-12-20T12:11:48;101415.66;;;8.64;100.00
77662;BME280;69666;52.136;5.424;2023-12-20T12:14:17;101423.69;;;8.64;100.00
77662;BME280;69666;52.136;5.424;2023-12-20T12:16:48;101425.56;;;8.63;100.00
77662;BME280;69666;52.136;5.424;2023-12-20T12:19:25;101415.84;;;8.62;100.00
77662;BME280;69666;52.136;5.424;2023-12-20T12:22:08;101427.13;;;8.58;100.00
77662;BME280;69666;52.136;5.424;2023-12-20T12:24:46;101418.72;;;8.61;100.00
77662;BME280;69666;52.136;5.424;2023-12-20T12:27:16;101423.06;;;8.62;100.00
77662;BME280;69666;52.136;5.424;2023-12-20T12:30:06;101403.59;;;8.60;100.00
77662;BME280;69666;52.136;5.424;2023-12-20T12:32:36;101414.53;;;8.58;100.00
77662;BME280;69666;52.136;5.424;2023-12-20T12:35:06;101401.13;;;8.58;100.00
77662;BME280;69666;52.136;5.424;2023-12-20T12:37:39;101395.75;;;8.58;100.00
77662;BME280;69666;52.136;5.424;2023-12-20T12:40:13;101393.25;;;8.57;100.00
77662;BME280;69666;52.136;5.424;2023-12-20T12:42:44;101393.25;;;8.57;100.00
77662;BME280;69666;52.136;5.424;2023-12-20T12:45:14;101383.53;;;8.56;100.00
77662;BME280;69666;52.136;5.424;2023-12-20T12:47:44;101371.56;;;8.58;100.00
77662;BME280;69666;52.136;5.424;2023-12-20T12:50:15;101375.91;;;8.59;100.00
77662;BME280;69666;52.136;5.424;2023-12-20T12:52:45;101378.88;;;8.65;100.00
77662;BME280;69666;52.136;5.424;2023-12-20T12:55:15;101377.59;;;8.60;100.00
77662;BME280;69666;52.136;5.424;2023-12-20T12:57:44;101379.44;;;8.60;100.00
77662;BME280;69666;52.136;5.424;2023-12-20T13:00:14;101382.97;;;8.60;100.00
77662;BME280;69666;52.136;5.424;2023-12-20T13:02:44;101369.72;;;8.59;100.00
77662;BME280;69666;52.136;5.424;2023-12-20T13:05:13;101372.22;;;8.60;100.00
77662;BME280;69666;52.136;5.424;2023-12-20T13:07:43;101361.66;;;8.59;100.00
77662;BME280;69666;52.136;5.424;2023-12-20T13:10:14;101365.09;;;8.53;100.00